sensor_id;sensor_type;location;lat;lon;timestamp;P1;durP1;ratioP1;P2;durP2;ratioP2
61038;SDS011;46919;45.816;3.104;2023-06-24T00:02:10;3.38;;;2.30;;
61038;SDS011;46919;45.816;3.104;2023-06-24T00:04:36;6.80;;;2.70;;
61038;SDS011;46919;45.816;3.104;2023-06-24T00:07:01;4.53;;;2.60;;
61038;SDS011;46919;45.816;3.104;2023-06-24T00:09:27;4.10;;;2.60;;
61038;SDS011;46919;45.816;3.104;2023-06-24T00:11:56;6.30;;;2.63;;
61038;SDS011;46919;45.816;3.104;2023-06-24T00:14:23;4.03;;;2.63;;
61038;SDS011;46919;45.816;3.104;2023-06-24T00:16:50;3.53;;;2.72;;
61038;SDS011;46919;45.816;3.104;2023-06-24T00:19:19;3.85;;;2.80;;
61038;SDS011;46919;45.816;3.104;2023-06-24T00:21:45;3.50;;;2.42;;
61038;SDS011;46919;45.816;3.104;2023-06-24T00:24:11;4.97;;;2.60;;
61038;SDS011;46919;45.816;3.104;2023-06-24T00:26:37;5.22;;;2.60;;
61038;SDS011;46919;45.816;3.104;2023-06-24T00:29:02;2.90;;;2.47;;
61038;SDS011;46919;45.816;3.104;2023-06-24T00:31:28;6.35;;;2.38;;
61038;SDS011;46919;45.816;3.104;2023-06-24T00:33:53;7.35;;;2.50;;
61038;SDS011;46919;45.816;3.104;2023-06-24T00:36:18;6.65;;;2.75;;
61038;SDS011;46919;45.816;3.104;2023-06-24T00:38:45;3.47;;;2.63;;
61038;SDS011;46919;45.816;3.104;2023-06-24T00:41:10;6.97;;;2.45;;
61038;SDS011;46919;45.816;3.104;2023-06-24T00:43:36;5.25;;;2.65;;
61038;SDS011;46919;45.816;3.104;2023-06-24T00:46:02;3.97;;;2.70;;
61038;SDS011;46919;45.816;3.104;2023-06-24T00:48:28;4.28;;;2.45;;
61038;SDS011;46919;45.816;3.104;2023-06-24T00:50:53;5.05;;;2.47;;
61038;SDS011;46919;45.816;3.104;2023-06-24T00:53:19;5.13;;;2.45;;
61038;SDS011;46919;45.816;3.104;2023-06-24T00:55:46;6.18;;;2.45;;
61038;SDS011;46919;45.816;3.104;2023-06-24T00:58:12;2.97;;;2.40;;
61038;SDS011;46919;45.816;3.104;2023-06-24T01:00:41;3.72;;;2.67;;
61038;SDS011;46919;45.816;3.104;2023-06-24T01:03:11;3.22;;;2.03;;
61038;SDS011;46919;45.816;3.104;2023-06-24T01:05:40;3.28;;;2.53;;
61038;SDS011;46919;45.816;3.104;2023-06-24T01:08:06;4.13;;;2.60;;
61038;SDS011;46919;45.816;3.104;2023-06-24T01:10:32;4.07;;;2.78;;
61038;SDS011;46919;45.816;3.104;2023-06-24T01:12:57;9.25;;;2.95;;
61038;SDS011;46919;45.816;3.104;2023-06-24T01:15:23;4.03;;;2.58;;
61038;SDS011;46919;45.816;3.104;2023-06-24T01:18:08;4.72;;;2.50;;
61038;SDS011;46919;45.816;3.104;2023-06-24T01:20:48;2.75;;;2.42;;
61038;SDS011;46919;45.816;3.104;2023-06-24T01:37:14;3.33;;;2.10;;
61038;SDS011;46919;45.816;3.104;2023-06-24T01:39:46;3.75;;;2.40;;
61038;SDS011;46919;45.816;3.104;2023-06-24T01:42:15;2.50;;;2.28;;
61038;SDS011;46919;45.816;3.104;2023-06-24T01:44:43;4.65;;;2.60;;
61038;SDS011;46919;45.816;3.104;2023-06-24T01:47:12;6.32;;;2.60;;
61038;SDS011;46919;45.816;3.104;2023-06-24T01:49:42;5.25;;;2.58;;
61038;SDS011;46919;45.816;3.104;2023-06-24T01:52:10;3.88;;;2.55;;
61038;SDS011;46919;45.816;3.104;2023-06-24T01:54:36;5.72;;;2.80;;
61038;SDS011;46919;45.816;3.104;2023-06-24T01:57:05;3.90;;;2.60;;
61038;SDS011;46919;45.816;3.104;2023-06-24T01:59:33;3.72;;;2.63;;
61038;SDS011;46919;45.816;3.104;2023-06-24T02:01:59;7.50;;;2.80;;
61038;SDS011;46919;45.816;3.104;2023-06-24T02:04:25;6.35;;;2.80;;
61038;SDS011;46919;45.816;3.104;2023-06-24T02:06:56;6.00;;;2.47;;
61038;SDS011;46919;45.816;3.104;2023-06-24T02:09:26;6.20;;;2.75;;
61038;SDS011;46919;45.816;3.104;2023-06-24T02:11:54;4.88;;;2.78;;
61038;SDS011;46919;45.816;3.104;2023-06-24T02:14:22;6.25;;;2.85;;
61038;SDS011;46919;45.816;3.104;2023-06-24T02:16:48;5.63;;;2.58;;
61038;SDS011;46919;45.816;3.104;2023-06-24T02:19:16;4.47;;;2.67;;
61038;SDS011;46919;45.816;3.104;2023-06-24T02:21:42;4.30;;;2.50;;
61038;SDS011;46919;45.816;3.104;2023-06-24T02:24:10;3.42;;;2.45;;
61038;SDS011;46919;45.816;3.104;2023-06-24T02:26:36;4.03;;;2.50;;
61038;SDS011;46919;45.816;3.104;2023-06-24T02:29:06;4.90;;;2.70;;
61038;SDS011;46919;45.816;3.104;2023-06-24T02:31:35;4.50;;;2.80;;
61038;SDS011;46919;45.816;3.104;2023-06-24T02:34:00;4.10;;;2.22;;
61038;SDS011;46919;45.816;3.104;2023-06-24T02:36:26;4.15;;;3.13;;
61038;SDS011;46919;45.816;3.104;2023-06-24T02:38:51;4.82;;;2.50;;
61038;SDS011;46919;45.816;3.104;2023-06-24T02:41:17;3.75;;;2.70;;
61038;SDS011;46919;45.816;3.104;2023-06-24T02:43:42;4.32;;;2.65;;
61038;SDS011;46919;45.816;3.104;2023-06-24T02:46:07;3.38;;;2.72;;
61038;SDS011;46919;45.816;3.104;2023-06-24T02:48:36;5.28;;;2.85;;
61038;SDS011;46919;45.816;3.104;2023-06-24T02:51:03;4.88;;;3.20;;
61038;SDS011;46919;45.816;3.104;2023-06-24T02:53:31;4.68;;;2.95;;
61038;SDS011;46919;45.816;3.104;2023-06-24T02:55:57;3.63;;;2.95;;
61038;SDS011;46919;45.816;3.104;2023-06-24T02:58:24;6.05;;;2.67;;
61038;SDS011;46919;45.816;3.104;2023-06-24T03:00:56;3.85;;;2.80;;
61038;SDS011;46919;45.816;3.104;2023-06-24T03:03:23;6.03;;;2.97;;
61038;SDS011;46919;45.816;3.104;2023-06-24T03:05:50;3.08;;;2.70;;
61038;SDS011;46919;45.816;3.104;2023-06-24T03:08:16;4.53;;;2.70;;
61038;SDS011;46919;45.816;3.104;2023-06-24T03:10:41;3.70;;;2.83;;
61038;SDS011;46919;45.816;3.104;2023-06-24T03:13:07;6.43;;;2.60;;
61038;SDS011;46919;45.816;3.104;2023-06-24T03:15:33;5.43;;;2.72;;
61038;SDS011;46919;45.816;3.104;2023-06-24T03:17:58;4.72;;;2.67;;
61038;SDS011;46919;45.816;3.104;2023-06-24T03:20:24;3.28;;;2.83;;
61038;SDS011;46919;45.816;3.104;2023-06-24T03:22:49;3.33;;;2.58;;
61038;SDS011;46919;45.816;3.104;2023-06-24T03:25:14;3.45;;;3.05;;
61038;SDS011;46919;45.816;3.104;2023-06-24T03:27:40;5.07;;;2.80;;
61038;SDS011;46919;45.816;3.104;2023-06-24T03:30:05;4.95;;;2.92;;
61038;SDS011;46919;45.816;3.104;2023-06-24T03:32:31;6.90;;;2.67;;
61038;SDS011;46919;45.816;3.104;2023-06-24T03:35:00;3.75;;;3.00;;
61038;SDS011;46919;45.816;3.104;2023-06-24T03:37:25;3.28;;;2.78;;
61038;SDS011;46919;45.816;3.104;2023-06-24T03:39:50;4.15;;;3.25;;
61038;SDS011;46919;45.816;3.104;2023-06-24T03:42:16;6.65;;;2.90;;
61038;SDS011;46919;45.816;3.104;2023-06-24T03:44:41;3.90;;;2.67;;
61038;SDS011;46919;45.816;3.104;2023-06-24T03:47:06;6.07;;;2.80;;
61038;SDS011;46919;45.816;3.104;2023-06-24T03:49:32;3.00;;;2.70;;
61038;SDS011;46919;45.816;3.104;2023-06-24T03:51:57;5.20;;;3.05;;
61038;SDS011;46919;45.816;3.104;2023-06-24T03:54:23;3.10;;;2.80;;
61038;SDS011;46919;45.816;3.104;2023-06-24T03:56:48;2.60;;;2.40;;
61038;SDS011;46919;45.816;3.104;2023-06-24T03:59:13;5.78;;;3.17;;
61038;SDS011;46919;45.816;3.104;2023-06-24T04:01:39;7.25;;;3.22;;
61038;SDS011;46919;45.816;3.104;2023-06-24T04:04:06;3.75;;;2.70;;
61038;SDS011;46919;45.816;3.104;2023-06-24T04:06:31;3.75;;;2.80;;
61038;SDS011;46919;45.816;3.104;2023-06-24T04:08:57;4.40;;;3.28;;
61038;SDS011;46919;45.816;3.104;2023-06-24T04:11:22;6.38;;;3.97;;
61038;SDS011;46919;45.816;3.104;2023-06-24T04:13:47;5.32;;;2.75;;
61038;SDS011;46919;45.816;3.104;2023-06-24T04:16:13;4.20;;;2.95;;
61038;SDS011;46919;45.816;3.104;2023-06-24T04:18:39;4.13;;;2.63;;
61038;SDS011;46919;45.816;3.104;2023-06-24T04:21:05;4.95;;;2.60;;
61038;SDS011;46919;45.816;3.104;2023-06-24T04:23:31;5.43;;;3.22;;
61038;SDS011;46919;45.816;3.104;2023-06-24T04:25:57;7.15;;;3.00;;
61038;SDS011;46919;45.816;3.104;2023-06-24T04:28:23;4.25;;;2.67;;
61038;SDS011;46919;45.816;3.104;2023-06-24T04:30:48;7.13;;;2.83;;
61038;SDS011;46919;45.816;3.104;2023-06-24T04:33:14;3.80;;;3.03;;
61038;SDS011;46919;45.816;3.104;2023-06-24T04:35:39;4.63;;;2.58;;
61038;SDS011;46919;45.816;3.104;2023-06-24T04:38:05;3.55;;;2.70;;
61038;SDS011;46919;45.816;3.104;2023-06-24T04:40:30;3.92;;;2.95;;
61038;SDS011;46919;45.816;3.104;2023-06-24T04:42:55;8.52;;;3.25;;
61038;SDS011;46919;45.816;3.104;2023-06-24T04:45:21;7.30;;;3.00;;
61038;SDS011;46919;45.816;3.104;2023-06-24T04:47:46;4.32;;;3.03;;
61038;SDS011;46919;45.816;3.104;2023-06-24T04:50:12;7.75;;;3.60;;
61038;SDS011;46919;45.816;3.104;2023-06-24T04:52:39;5.97;;;3.97;;
61038;SDS011;46919;45.816;3.104;2023-06-24T04:55:04;7.82;;;4.03;;
61038;SDS011;46919;45.816;3.104;2023-06-24T04:57:31;8.73;;;4.50;;
61038;SDS011;46919;45.816;3.104;2023-06-24T04:59:57;13.73;;;6.43;;
61038;SDS011;46919;45.816;3.104;2023-06-24T05:02:23;24.25;;;8.73;;
61038;SDS011;46919;45.816;3.104;2023-06-24T05:04:49;14.13;;;7.53;;
61038;SDS011;46919;45.816;3.104;2023-06-24T05:07:16;7.53;;;5.90;;
61038;SDS011;46919;45.816;3.104;2023-06-24T05:09:41;10.27;;;6.22;;
61038;SDS011;46919;45.816;3.104;2023-06-24T05:12:08;8.85;;;5.20;;
61038;SDS011;46919;45.816;3.104;2023-06-24T05:14:34;10.45;;;5.10;;
61038;SDS011;46919;45.816;3.104;2023-06-24T05:17:00;5.32;;;4.22;;
61038;SDS011;46919;45.816;3.104;2023-06-24T05:19:26;7.85;;;5.35;;
61038;SDS011;46919;45.816;3.104;2023-06-24T05:21:51;7.10;;;4.38;;
61038;SDS011;46919;45.816;3.104;2023-06-24T05:24:17;8.43;;;4.35;;
61038;SDS011;46919;45.816;3.104;2023-06-24T05:26:42;6.65;;;4.40;;
61038;SDS011;46919;45.816;3.104;2023-06-24T05:29:09;5.95;;;4.28;;
61038;SDS011;46919;45.816;3.104;2023-06-24T05:31:36;5.85;;;4.60;;
61038;SDS011;46919;45.816;3.104;2023-06-24T05:34:02;7.13;;;4.93;;
61038;SDS011;46919;45.816;3.104;2023-06-24T05:36:27;6.43;;;4.40;;
61038;SDS011;46919;45.816;3.104;2023-06-24T05:38:52;7.30;;;5.00;;
61038;SDS011;46919;45.816;3.104;2023-06-24T05:41:18;12.02;;;4.95;;
61038;SDS011;46919;45.816;3.104;2023-06-24T05:43:43;7.85;;;5.50;;
61038;SDS011;46919;45.816;3.104;2023-06-24T05:46:09;8.65;;;5.13;;
61038;SDS011;46919;45.816;3.104;2023-06-24T05:48:34;7.60;;;4.40;;
61038;SDS011;46919;45.816;3.104;2023-06-24T05:51:00;6.82;;;4.93;;
61038;SDS011;46919;45.816;3.104;2023-06-24T05:53:25;7.20;;;4.57;;
61038;SDS011;46919;45.816;3.104;2023-06-24T05:55:51;6.80;;;4.40;;
61038;SDS011;46919;45.816;3.104;2023-06-24T05:58:16;7.97;;;4.55;;
61038;SDS011;46919;45.816;3.104;2023-06-24T06:00:41;4.35;;;3.47;;
61038;SDS011;46919;45.816;3.104;2023-06-24T06:03:07;5.72;;;3.83;;
61038;SDS011;46919;45.816;3.104;2023-06-24T06:05:32;5.82;;;3.20;;
61038;SDS011;46919;45.816;3.104;2023-06-24T06:07:58;6.68;;;3.42;;
61038;SDS011;46919;45.816;3.104;2023-06-24T06:10:23;4.60;;;3.08;;
61038;SDS011;46919;45.816;3.104;2023-06-24T06:12:49;4.28;;;2.47;;
61038;SDS011;46919;45.816;3.104;2023-06-24T06:15:14;5.35;;;2.90;;
61038;SDS011;46919;45.816;3.104;2023-06-24T06:17:40;4.57;;;2.70;;
61038;SDS011;46919;45.816;3.104;2023-06-24T06:20:06;5.07;;;2.78;;
61038;SDS011;46919;45.816;3.104;2023-06-24T06:22:31;4.43;;;2.78;;
61038;SDS011;46919;45.816;3.104;2023-06-24T06:25:02;3.35;;;2.63;;
61038;SDS011;46919;45.816;3.104;2023-06-24T06:27:28;5.82;;;2.60;;
61038;SDS011;46919;45.816;3.104;2023-06-24T06:29:53;5.05;;;2.75;;
61038;SDS011;46919;45.816;3.104;2023-06-24T06:32:18;3.40;;;2.67;;
61038;SDS011;46919;45.816;3.104;2023-06-24T06:34:44;3.65;;;2.67;;
61038;SDS011;46919;45.816;3.104;2023-06-24T06:37:09;3.22;;;2.70;;
61038;SDS011;46919;45.816;3.104;2023-06-24T06:39:34;3.63;;;2.60;;
61038;SDS011;46919;45.816;3.104;2023-06-24T06:42:00;5.80;;;2.60;;
61038;SDS011;46919;45.816;3.104;2023-06-24T06:44:25;4.72;;;2.90;;
61038;SDS011;46919;45.816;3.104;2023-06-24T06:46:50;4.75;;;2.85;;
61038;SDS011;46919;45.816;3.104;2023-06-24T06:49:16;3.80;;;3.00;;
61038;SDS011;46919;45.816;3.104;2023-06-24T06:51:41;4.68;;;3.08;;
61038;SDS011;46919;45.816;3.104;2023-06-24T06:54:06;4.47;;;2.60;;
61038;SDS011;46919;45.816;3.104;2023-06-24T06:56:32;4.20;;;2.85;;
61038;SDS011;46919;45.816;3.104;2023-06-24T06:58:57;5.88;;;2.70;;
61038;SDS011;46919;45.816;3.104;2023-06-24T07:01:22;4.95;;;2.40;;
61038;SDS011;46919;45.816;3.104;2023-06-24T07:03:49;5.30;;;2.75;;
61038;SDS011;46919;45.816;3.104;2023-06-24T07:06:14;3.58;;;2.78;;
61038;SDS011;46919;45.816;3.104;2023-06-24T07:08:40;4.43;;;3.22;;
61038;SDS011;46919;45.816;3.104;2023-06-24T07:11:05;3.63;;;2.75;;
61038;SDS011;46919;45.816;3.104;2023-06-24T07:13:31;5.88;;;2.60;;
61038;SDS011;46919;45.816;3.104;2023-06-24T07:15:56;3.60;;;2.78;;
61038;SDS011;46919;45.816;3.104;2023-06-24T07:18:21;3.97;;;2.65;;
61038;SDS011;46919;45.816;3.104;2023-06-24T07:20:47;5.35;;;3.00;;
61038;SDS011;46919;45.816;3.104;2023-06-24T07:23:12;3.75;;;2.72;;
61038;SDS011;46919;45.816;3.104;2023-06-24T07:25:38;4.75;;;3.70;;
61038;SDS011;46919;45.816;3.104;2023-06-24T07:28:03;2.78;;;2.53;;
61038;SDS011;46919;45.816;3.104;2023-06-24T07:30:28;5.13;;;3.00;;
61038;SDS011;46919;45.816;3.104;2023-06-24T07:32:54;3.58;;;2.97;;
61038;SDS011;46919;45.816;3.104;2023-06-24T07:35:19;5.63;;;3.40;;
61038;SDS011;46919;45.816;3.104;2023-06-24T07:37:45;3.55;;;2.72;;
61038;SDS011;46919;45.816;3.104;2023-06-24T07:40:10;4.35;;;3.20;;
61038;SDS011;46919;45.816;3.104;2023-06-24T07:42:36;6.00;;;2.67;;
61038;SDS011;46919;45.816;3.104;2023-06-24T07:45:01;3.15;;;2.60;;
61038;SDS011;46919;45.816;3.104;2023-06-24T07:47:27;3.72;;;2.78;;
61038;SDS011;46919;45.816;3.104;2023-06-24T07:49:52;4.90;;;2.90;;
61038;SDS011;46919;45.816;3.104;2023-06-24T07:52:18;8.23;;;2.95;;
61038;SDS011;46919;45.816;3.104;2023-06-24T07:54:43;3.63;;;2.78;;
61038;SDS011;46919;45.816;3.104;2023-06-24T07:57:08;3.90;;;3.00;;
61038;SDS011;46919;45.816;3.104;2023-06-24T07:59:34;4.72;;;3.10;;
61038;SDS011;46919;45.816;3.104;2023-06-24T08:01:59;3.50;;;3.10;;
61038;SDS011;46919;45.816;3.104;2023-06-24T08:04:24;5.93;;;3.03;;
61038;SDS011;46919;45.816;3.104;2023-06-24T08:06:50;6.57;;;2.85;;
61038;SDS011;46919;45.816;3.104;2023-06-24T08:09:16;6.22;;;3.53;;
61038;SDS011;46919;45.816;3.104;2023-06-24T08:11:42;4.00;;;3.08;;
61038;SDS011;46919;45.816;3.104;2023-06-24T08:14:08;5.63;;;3.30;;
61038;SDS011;46919;45.816;3.104;2023-06-24T08:16:33;4.63;;;3.25;;
61038;SDS011;46919;45.816;3.104;2023-06-24T08:18:58;5.07;;;3.10;;
61038;SDS011;46919;45.816;3.104;2023-06-24T08:21:24;3.88;;;2.90;;
61038;SDS011;46919;45.816;3.104;2023-06-24T08:23:49;4.68;;;2.80;;
61038;SDS011;46919;45.816;3.104;2023-06-24T08:26:16;3.33;;;3.03;;
61038;SDS011;46919;45.816;3.104;2023-06-24T08:28:42;5.20;;;3.35;;
61038;SDS011;46919;45.816;3.104;2023-06-24T08:31:07;3.65;;;3.05;;
61038;SDS011;46919;45.816;3.104;2023-06-24T08:33:32;5.43;;;2.95;;
61038;SDS011;46919;45.816;3.104;2023-06-24T08:35:58;6.55;;;3.10;;
61038;SDS011;46919;45.816;3.104;2023-06-24T08:38:23;6.20;;;3.15;;
61038;SDS011;46919;45.816;3.104;2023-06-24T08:40:49;5.70;;;3.15;;
61038;SDS011;46919;45.816;3.104;2023-06-24T08:43:14;4.13;;;3.38;;
61038;SDS011;46919;45.816;3.104;2023-06-24T08:45:40;4.68;;;2.90;;
61038;SDS011;46919;45.816;3.104;2023-06-24T08:48:05;5.18;;;2.97;;
61038;SDS011;46919;45.816;3.104;2023-06-24T08:50:33;3.47;;;3.17;;
61038;SDS011;46919;45.816;3.104;2023-06-24T08:53:02;4.15;;;2.95;;
61038;SDS011;46919;45.816;3.104;2023-06-24T08:55:31;3.70;;;3.15;;
61038;SDS011;46919;45.816;3.104;2023-06-24T08:58:01;5.53;;;3.40;;
61038;SDS011;46919;45.816;3.104;2023-06-24T09:00:27;3.47;;;3.17;;
61038;SDS011;46919;45.816;3.104;2023-06-24T09:02:53;5.13;;;2.97;;
61038;SDS011;46919;45.816;3.104;2023-06-24T09:05:18;5.93;;;3.20;;
61038;SDS011;46919;45.816;3.104;2023-06-24T09:07:44;3.63;;;3.22;;
61038;SDS011;46919;45.816;3.104;2023-06-24T09:10:09;6.15;;;3.30;;
61038;SDS011;46919;45.816;3.104;2023-06-24T09:12:34;5.25;;;3.03;;
61038;SDS011;46919;45.816;3.104;2023-06-24T09:15:00;7.38;;;3.35;;
61038;SDS011;46919;45.816;3.104;2023-06-24T09:17:28;3.75;;;3.08;;
61038;SDS011;46919;45.816;3.104;2023-06-24T09:19:53;5.35;;;3.28;;
61038;SDS011;46919;45.816;3.104;2023-06-24T09:22:28;3.42;;;3.10;;
61038;SDS011;46919;45.816;3.104;2023-06-24T09:24:54;4.72;;;2.85;;
61038;SDS011;46919;45.816;3.104;2023-06-24T09:27:19;5.18;;;3.03;;
61038;SDS011;46919;45.816;3.104;2023-06-24T09:29:45;6.55;;;3.40;;
61038;SDS011;46919;45.816;3.104;2023-06-24T09:32:12;4.60;;;3.05;;
61038;SDS011;46919;45.816;3.104;2023-06-24T09:34:37;5.30;;;2.90;;
61038;SDS011;46919;45.816;3.104;2023-06-24T09:37:03;3.47;;;2.92;;
61038;SDS011;46919;45.816;3.104;2023-06-24T09:39:34;3.17;;;2.88;;
61038;SDS011;46919;45.816;3.104;2023-06-24T09:42:04;6.15;;;3.00;;
61038;SDS011;46919;45.816;3.104;2023-06-24T09:44:31;4.68;;;3.25;;
61038;SDS011;46919;45.816;3.104;2023-06-24T09:46:57;3.67;;;3.08;;
61038;SDS011;46919;45.816;3.104;2023-06-24T09:49:22;3.72;;;3.33;;
61038;SDS011;46919;45.816;3.104;2023-06-24T09:51:49;5.45;;;2.80;;
61038;SDS011;46919;45.816;3.104;2023-06-24T09:54:19;4.40;;;2.95;;
61038;SDS011;46919;45.816;3.104;2023-06-24T09:56:48;4.65;;;3.25;;
61038;SDS011;46919;45.816;3.104;2023-06-24T09:59:14;5.22;;;2.90;;
61038;SDS011;46919;45.816;3.104;2023-06-24T10:01:40;3.65;;;3.17;;
61038;SDS011;46919;45.816;3.104;2023-06-24T10:04:08;4.97;;;3.00;;
61038;SDS011;46919;45.816;3.104;2023-06-24T10:06:35;4.07;;;2.80;;
61038;SDS011;46919;45.816;3.104;2023-06-24T10:09:01;3.38;;;2.88;;
61038;SDS011;46919;45.816;3.104;2023-06-24T10:11:27;3.08;;;2.78;;
61038;SDS011;46919;45.816;3.104;2023-06-24T10:13:52;3.75;;;3.05;;
61038;SDS011;46919;45.816;3.104;2023-06-24T10:16:19;4.60;;;3.00;;
61038;SDS011;46919;45.816;3.104;2023-06-24T10:18:45;4.28;;;2.92;;
61038;SDS011;46919;45.816;3.104;2023-06-24T10:21:11;4.55;;;2.53;;
61038;SDS011;46919;45.816;3.104;2023-06-24T10:23:41;3.08;;;2.80;;
61038;SDS011;46919;45.816;3.104;2023-06-24T10:26:10;3.65;;;2.75;;
61038;SDS011;46919;45.816;3.104;2023-06-24T10:34:14;3.45;;;3.15;;
61038;SDS011;46919;45.816;3.104;2023-06-24T10:37:09;5.82;;;3.20;;
61038;SDS011;46919;45.816;3.104;2023-06-24T10:39:38;5.10;;;2.63;;
61038;SDS011;46919;45.816;3.104;2023-06-24T10:44:48;3.70;;;2.92;;
61038;SDS011;46919;45.816;3.104;2023-06-24T10:47:15;3.45;;;2.70;;
61038;SDS011;46919;45.816;3.104;2023-06-24T10:49:40;3.40;;;3.10;;
61038;SDS011;46919;45.816;3.104;2023-06-24T10:52:12;3.67;;;2.90;;
61038;SDS011;46919;45.816;3.104;2023-06-24T10:54:38;5.65;;;2.85;;
61038;SDS011;46919;45.816;3.104;2023-06-24T10:57:05;4.35;;;2.63;;
61038;SDS011;46919;45.816;3.104;2023-06-24T10:59:40;5.60;;;2.50;;
61038;SDS011;46919;45.816;3.104;2023-06-24T11:02:08;3.30;;;2.50;;
61038;SDS011;46919;45.816;3.104;2023-06-24T11:04:46;3.90;;;2.65;;
61038;SDS011;46919;45.816;3.104;2023-06-24T11:07:13;3.15;;;2.25;;
61038;SDS011;46919;45.816;3.104;2023-06-24T11:09:47;4.07;;;2.40;;
61038;SDS011;46919;45.816;3.104;2023-06-24T11:12:14;2.65;;;2.05;;
61038;SDS011;46919;45.816;3.104;2023-06-24T11:14:39;2.72;;;2.50;;
61038;SDS011;46919;45.816;3.104;2023-06-24T11:17:05;3.70;;;2.45;;
61038;SDS011;46919;45.816;3.104;2023-06-24T11:19:31;2.63;;;2.35;;
61038;SDS011;46919;45.816;3.104;2023-06-24T11:22:00;3.88;;;2.40;;
61038;SDS011;46919;45.816;3.104;2023-06-24T11:24:26;3.22;;;2.40;;
61038;SDS011;46919;45.816;3.104;2023-06-24T11:26:55;2.40;;;2.20;;
61038;SDS011;46919;45.816;3.104;2023-06-24T11:29:21;3.53;;;2.60;;
61038;SDS011;46919;45.816;3.104;2023-06-24T11:31:48;3.15;;;2.38;;
61038;SDS011;46919;45.816;3.104;2023-06-24T11:34:14;3.97;;;2.50;;
61038;SDS011;46919;45.816;3.104;2023-06-24T11:36:39;3.25;;;2.33;;
61038;SDS011;46919;45.816;3.104;2023-06-24T11:39:04;2.85;;;2.35;;
61038;SDS011;46919;45.816;3.104;2023-06-24T11:41:30;5.38;;;2.42;;
61038;SDS011;46919;45.816;3.104;2023-06-24T11:43:57;2.30;;;2.10;;
61038;SDS011;46919;45.816;3.104;2023-06-24T11:46:26;2.88;;;2.30;;
61038;SDS011;46919;45.816;3.104;2023-06-24T11:49:05;3.83;;;2.50;;
61038;SDS011;46919;45.816;3.104;2023-06-24T11:51:32;3.33;;;2.50;;
61038;SDS011;46919;45.816;3.104;2023-06-24T11:53:58;4.78;;;2.60;;
61038;SDS011;46919;45.816;3.104;2023-06-24T11:56:34;3.38;;;2.25;;
61038;SDS011;46919;45.816;3.104;2023-06-24T11:59:03;3.03;;;2.40;;
61038;SDS011;46919;45.816;3.104;2023-06-24T12:01:32;3.42;;;2.65;;
61038;SDS011;46919;45.816;3.104;2023-06-24T12:04:01;3.63;;;2.47;;
61038;SDS011;46919;45.816;3.104;2023-06-24T12:06:26;3.10;;;2.47;;
61038;SDS011;46919;45.816;3.104;2023-06-24T12:08:52;3.63;;;2.60;;
61038;SDS011;46919;45.816;3.104;2023-06-24T12:11:17;4.20;;;2.92;;
61038;SDS011;46919;45.816;3.104;2023-06-24T12:13:43;3.17;;;2.47;;
61038;SDS011;46919;45.816;3.104;2023-06-24T12:16:08;3.47;;;2.47;;
61038;SDS011;46919;45.816;3.104;2023-06-24T12:18:34;3.10;;;2.80;;
61038;SDS011;46919;45.816;3.104;2023-06-24T12:20:59;5.18;;;2.72;;
61038;SDS011;46919;45.816;3.104;2023-06-24T12:23:24;2.70;;;2.40;;
61038;SDS011;46919;45.816;3.104;2023-06-24T12:25:50;7.15;;;2.70;;
61038;SDS011;46919;45.816;3.104;2023-06-24T12:28:15;3.30;;;2.90;;
61038;SDS011;46919;45.816;3.104;2023-06-24T12:30:40;3.58;;;2.60;;
61038;SDS011;46919;45.816;3.104;2023-06-24T12:33:06;3.15;;;2.50;;
61038;SDS011;46919;45.816;3.104;2023-06-24T12:35:33;4.63;;;2.92;;
61038;SDS011;46919;45.816;3.104;2023-06-24T12:37:59;4.05;;;2.85;;
61038;SDS011;46919;45.816;3.104;2023-06-24T12:40:24;3.45;;;3.00;;
61038;SDS011;46919;45.816;3.104;2023-06-24T12:42:49;4.35;;;2.83;;
61038;SDS011;46919;45.816;3.104;2023-06-24T12:45:15;2.88;;;2.60;;
61038;SDS011;46919;45.816;3.104;2023-06-24T12:47:40;7.10;;;2.80;;
61038;SDS011;46919;45.816;3.104;2023-06-24T12:50:06;2.85;;;2.58;;
61038;SDS011;46919;45.816;3.104;2023-06-24T12:52:33;4.78;;;3.10;;
61038;SDS011;46919;45.816;3.104;2023-06-24T12:54:59;4.53;;;2.83;;
61038;SDS011;46919;45.816;3.104;2023-06-24T12:57:24;3.95;;;2.75;;
61038;SDS011;46919;45.816;3.104;2023-06-24T12:59:49;5.80;;;2.75;;
61038;SDS011;46919;45.816;3.104;2023-06-24T13:02:15;4.78;;;2.80;;
61038;SDS011;46919;45.816;3.104;2023-06-24T13:04:40;3.78;;;2.63;;
61038;SDS011;46919;45.816;3.104;2023-06-24T13:07:05;3.92;;;2.80;;
61038;SDS011;46919;45.816;3.104;2023-06-24T13:09:32;3.53;;;2.75;;
61038;SDS011;46919;45.816;3.104;2023-06-24T13:11:57;3.20;;;2.67;;
61038;SDS011;46919;45.816;3.104;2023-06-24T13:14:22;9.05;;;3.15;;
61038;SDS011;46919;45.816;3.104;2023-06-24T13:16:50;3.83;;;2.53;;
61038;SDS011;46919;45.816;3.104;2023-06-24T13:19:15;4.45;;;2.60;;
61038;SDS011;46919;45.816;3.104;2023-06-24T13:21:42;2.88;;;2.55;;
61038;SDS011;46919;45.816;3.104;2023-06-24T13:24:07;3.88;;;2.63;;
61038;SDS011;46919;45.816;3.104;2023-06-24T13:26:33;3.55;;;2.60;;
61038;SDS011;46919;45.816;3.104;2023-06-24T13:28:59;2.97;;;2.67;;
61038;SDS011;46919;45.816;3.104;2023-06-24T13:31:24;3.05;;;2.78;;
61038;SDS011;46919;45.816;3.104;2023-06-24T13:33:50;4.18;;;2.55;;
61038;SDS011;46919;45.816;3.104;2023-06-24T13:36:32;3.63;;;3.28;;
61038;SDS011;46919;45.816;3.104;2023-06-24T13:39:00;8.65;;;2.78;;
61038;SDS011;46919;45.816;3.104;2023-06-24T13:41:27;4.85;;;2.72;;
61038;SDS011;46919;45.816;3.104;2023-06-24T13:43:54;2.92;;;2.60;;
61038;SDS011;46919;45.816;3.104;2023-06-24T13:46:20;5.70;;;2.63;;
61038;SDS011;46919;45.816;3.104;2023-06-24T13:48:46;2.53;;;2.33;;
61038;SDS011;46919;45.816;3.104;2023-06-24T13:51:11;3.00;;;2.60;;
61038;SDS011;46919;45.816;3.104;2023-06-24T13:53:36;5.63;;;2.42;;
61038;SDS011;46919;45.816;3.104;2023-06-24T13:56:02;3.30;;;2.45;;
61038;SDS011;46919;45.816;3.104;2023-06-24T13:58:28;3.17;;;2.72;;
61038;SDS011;46919;45.816;3.104;2023-06-24T14:00:53;2.58;;;2.35;;
61038;SDS011;46919;45.816;3.104;2023-06-24T14:03:18;3.30;;;2.67;;
61038;SDS011;46919;45.816;3.104;2023-06-24T14:05:44;2.95;;;2.63;;
61038;SDS011;46919;45.816;3.104;2023-06-24T14:08:09;3.92;;;2.50;;
61038;SDS011;46919;45.816;3.104;2023-06-24T14:10:34;3.08;;;2.55;;
61038;SDS011;46919;45.816;3.104;2023-06-24T14:13:00;3.20;;;2.70;;
61038;SDS011;46919;45.816;3.104;2023-06-24T14:15:25;5.18;;;3.15;;
61038;SDS011;46919;45.816;3.104;2023-06-24T14:17:51;3.65;;;2.45;;
61038;SDS011;46919;45.816;3.104;2023-06-24T14:20:16;2.90;;;2.50;;
61038;SDS011;46919;45.816;3.104;2023-06-24T14:22:41;5.32;;;2.63;;
61038;SDS011;46919;45.816;3.104;2023-06-24T14:25:07;4.32;;;2.28;;
61038;SDS011;46919;45.816;3.104;2023-06-24T14:27:33;4.13;;;2.45;;
61038;SDS011;46919;45.816;3.104;2023-06-24T14:29:58;4.05;;;2.75;;
61038;SDS011;46919;45.816;3.104;2023-06-24T14:32:24;3.83;;;2.80;;
61038;SDS011;46919;45.816;3.104;2023-06-24T14:34:49;3.22;;;2.80;;
61038;SDS011;46919;45.816;3.104;2023-06-24T14:37:14;4.97;;;2.92;;
61038;SDS011;46919;45.816;3.104;2023-06-24T14:39:40;4.75;;;2.78;;
61038;SDS011;46919;45.816;3.104;2023-06-24T14:42:06;4.03;;;2.58;;
61038;SDS011;46919;45.816;3.104;2023-06-24T14:44:31;4.68;;;2.70;;
61038;SDS011;46919;45.816;3.104;2023-06-24T14:46:57;6.15;;;2.85;;
61038;SDS011;46919;45.816;3.104;2023-06-24T14:49:23;3.15;;;2.63;;
61038;SDS011;46919;45.816;3.104;2023-06-24T14:51:48;3.00;;;2.70;;
61038;SDS011;46919;45.816;3.104;2023-06-24T14:54:14;2.90;;;2.60;;
61038;SDS011;46919;45.816;3.104;2023-06-24T14:56:39;2.50;;;2.25;;
61038;SDS011;46919;45.816;3.104;2023-06-24T14:59:05;3.78;;;2.10;;
61038;SDS011;46919;45.816;3.104;2023-06-24T15:01:30;3.15;;;2.60;;
61038;SDS011;46919;45.816;3.104;2023-06-24T15:03:55;2.97;;;2.50;;
61038;SDS011;46919;45.816;3.104;2023-06-24T15:06:21;4.07;;;2.47;;